createdAt,value
2018-03-08T00:00:38.074Z,4.5
2018-03-08T00:01:28.431Z,4.5
2018-03-08T00:02:18.471Z,4.5
2018-03-08T00:03:08.827Z,4.5
2018-03-08T00:03:58.898Z,4.4
2018-03-08T00:04:48.385Z,4.4
2018-03-08T00:05:39.003Z,4.4
2018-03-08T00:06:29.062Z,4.4
2018-03-08T00:07:19.108Z,4.4
2018-03-08T00:08:08.877Z,4.4
2018-03-08T00:08:58.940Z,4.4
2018-03-08T00:09:49.004Z,4.4
2018-03-08T00:10:39.352Z,4.3
2018-03-08T00:11:29.129Z,4.3
2018-03-08T00:12:19.198Z,4.3
2018-03-08T00:13:09.513Z,4.3
2018-03-08T00:13:59.302Z,4.3
2018-03-08T00:14:49.449Z,4.3
2018-03-08T00:15:39.428Z,4.3
2018-03-08T00:16:29.474Z,4.3
2018-03-08T00:17:19.534Z,4.3
2018-03-08T00:18:09.922Z,4.2
2018-03-08T00:18:59.925Z,4.2
2018-03-08T00:19:50.002Z,4.2
2018-03-08T00:20:39.764Z,4.2
2018-03-08T00:21:29.822Z,4.2
2018-03-08T00:22:19.881Z,4.1
2018-03-08T00:23:10.059Z,4.2
2018-03-08T00:24:00.026Z,4.1
2018-03-08T00:24:50.341Z,4.1
2018-03-08T00:25:40.423Z,4.1
2018-03-08T00:26:30.466Z,4.1
2018-03-08T00:27:20.344Z,4.1
2018-03-08T00:28:10.309Z,4.1
2018-03-08T00:29:00.668Z,4.1
2018-03-08T00:29:50.442Z,4.1
2018-03-08T00:30:40.489Z,4.1
2018-03-08T00:31:30.624Z,4.1
2018-03-08T00:32:20.591Z,4
2018-03-08T00:33:10.651Z,4.1
2018-03-08T00:34:00.759Z,4
2018-03-08T00:34:50.374Z,4
2018-03-08T00:35:40.704Z,4
2018-03-08T00:36:30.715Z,4
2018-03-08T00:37:20.375Z,3.9
2018-03-08T00:38:11.023Z,3.9
2018-03-08T00:39:01.346Z,3.9
2018-03-08T00:39:51.108Z,3.9
2018-03-08T00:40:41.183Z,3.9
2018-03-08T00:41:31.256Z,3.9
2018-03-08T00:42:21.101Z,3.9
2018-03-08T00:43:11.663Z,3.9
2018-03-08T00:44:01.423Z,3.9
2018-03-08T00:44:51.579Z,3.9
2018-03-08T00:45:41.518Z,3.9
2018-03-08T00:46:31.393Z,3.9
2018-03-08T00:47:21.932Z,3.9
2018-03-08T00:48:11.585Z,3.9
2018-03-08T00:49:01.787Z,3.9
2018-03-08T00:49:52.148Z,3.9
2018-03-08T00:50:41.582Z,3.9
2018-03-08T00:51:31.707Z,3.9
2018-03-08T00:52:22.062Z,3.9
2018-03-08T00:53:12.115Z,3.8
2018-03-08T00:54:01.929Z,3.8
2018-03-08T00:54:52.180Z,3.8
2018-03-08T00:55:42.540Z,3.8
2018-03-08T00:56:32.010Z,3.8
2018-03-08T00:57:21.768Z,3.8
2018-03-08T00:58:12.129Z,3.8
2018-03-08T00:59:02.269Z,3.8
2018-03-08T00:59:52.845Z,3.8
2018-03-08T01:00:42.879Z,3.8
2018-03-08T01:01:32.637Z,3.8
2018-03-08T01:02:22.685Z,3.8
2018-03-08T01:03:12.774Z,3.8
2018-03-08T01:04:02.812Z,3.8
2018-03-08T01:04:53.213Z,3.8
2018-03-08T01:05:42.944Z,3.8
2018-03-08T01:06:32.787Z,3.8
2018-03-08T01:07:23.097Z,3.8
2018-03-08T01:08:12.821Z,3.8
2018-03-08T01:09:02.976Z,3.8
2018-03-08T01:09:53.504Z,3.8
2018-03-08T01:10:43.321Z,3.8
2018-03-08T01:11:33.352Z,3.8
2018-03-08T01:12:23.686Z,3.8
2018-03-08T01:13:13.724Z,3.8
2018-03-08T01:14:03.614Z,3.8
2018-03-08T01:14:53.856Z,3.8
2018-03-08T01:15:43.908Z,3.8
2018-03-08T01:16:33.504Z,3.8
2018-03-08T01:17:24.068Z,3.8
2018-03-08T01:18:13.531Z,3.8
2018-03-08T01:19:03.677Z,3.8
2018-03-08T01:19:53.931Z,3.8
2018-03-08T01:20:43.990Z,3.8
2018-03-08T01:21:33.756Z,3.8
2018-03-08T01:22:23.909Z,3.8
2018-03-08T01:23:13.866Z,3.8
2018-03-08T01:24:03.794Z,3.8
2018-03-08T01:24:54.286Z,3.8
2018-03-08T01:25:44.355Z,3.7
2018-03-08T01:26:34.111Z,3.8
2018-03-08T01:27:24.764Z,3.8
2018-03-08T01:28:14.530Z,3.7
2018-03-08T01:29:04.570Z,3.8
2018-03-08T01:29:54.634Z,3.7
2018-03-08T01:30:44.493Z,3.8
2018-03-08T01:31:34.752Z,3.7
2018-03-08T01:32:24.821Z,3.7
2018-03-08T01:33:15.171Z,3.7
2018-03-08T01:34:04.933Z,3.8
2018-03-08T01:34:54.714Z,3.7
2018-03-08T01:35:45.040Z,3.7
2018-03-08T01:36:35.108Z,3.7
2018-03-08T01:37:25.157Z,3.7
2018-03-08T01:38:15.514Z,3.7
2018-03-08T01:39:05.077Z,3.7
2018-03-08T01:39:55.322Z,3.7
2018-03-08T01:40:45.674Z,3.7
2018-03-08T01:41:35.257Z,3.7
2018-03-08T01:42:25.216Z,3.7
2018-03-08T01:43:15.552Z,3.7
2018-03-08T01:44:05.907Z,3.7
2018-03-08T01:44:55.787Z,3.7
2018-03-08T01:45:46.075Z,3.7
2018-03-08T01:46:35.820Z,3.7
2018-03-08T01:47:25.579Z,3.7
2018-03-08T01:48:15.930Z,3.7
2018-03-08T01:49:06.265Z,3.7
2018-03-08T01:49:56.349Z,3.7
2018-03-08T01:50:46.415Z,3.7
2018-03-08T01:51:36.452Z,3.7
2018-03-08T01:52:25.923Z,3.7
2018-03-08T01:53:16.281Z,3.7
2018-03-08T01:54:06.129Z,3.7
2018-03-08T01:54:56.094Z,3.7
2018-03-08T01:55:46.760Z,3.6
2018-03-08T01:56:36.491Z,3.7
2018-03-08T01:57:26.293Z,3.7
2018-03-08T01:58:16.359Z,3.7
2018-03-08T01:59:06.741Z,3.7
2018-03-08T01:59:56.538Z,3.7
2018-03-08T02:00:47.076Z,3.7
2018-03-08T02:01:37.139Z,3.6
2018-03-08T02:02:26.711Z,3.7
2018-03-08T02:03:16.988Z,3.6
2018-03-08T02:04:06.893Z,3.7
2018-03-08T02:04:57.369Z,3.7
2018-03-08T02:05:47.153Z,3.7
2018-03-08T02:06:36.970Z,3.6
2018-03-08T02:07:27.273Z,3.6
2018-03-08T02:08:17.334Z,3.7
2018-03-08T02:09:07.394Z,3.7
2018-03-08T02:09:57.434Z,3.6
2018-03-08T02:10:47.298Z,3.6
2018-03-08T02:11:37.560Z,3.7
2018-03-08T02:12:27.632Z,3.6
2018-03-08T02:13:17.665Z,3.7
2018-03-08T02:14:07.718Z,3.7
2018-03-08T02:14:57.793Z,3.6
2018-03-08T02:15:47.837Z,3.7
2018-03-08T02:16:37.750Z,3.7
2018-03-08T02:17:28.053Z,3.7
2018-03-08T02:18:18.033Z,3.7
2018-03-08T02:19:07.804Z,3.7
2018-03-08T02:19:57.738Z,3.7
2018-03-08T02:20:47.910Z,3.7
2018-03-08T02:21:38.542Z,3.7
2018-03-08T02:22:28.323Z,3.7
2018-03-08T02:23:18.171Z,3.7
2018-03-08T02:24:08.232Z,3.7
2018-03-08T02:24:58.498Z,3.6
2018-03-08T02:25:48.840Z,3.6
2018-03-08T02:26:38.657Z,3.6
2018-03-08T02:27:28.659Z,3.7
2018-03-08T02:28:18.732Z,3.6
2018-03-08T02:29:08.796Z,3.6
2018-03-08T02:29:59.137Z,3.6
2018-03-08T02:30:48.912Z,3.7
2018-03-08T02:31:38.562Z,3.6
2018-03-08T02:32:29.321Z,3.7
2018-03-08T02:33:19.070Z,3.6
2018-03-08T02:34:08.849Z,3.6
2018-03-08T02:34:58.672Z,3.6
2018-03-08T02:35:49.541Z,3.6
2018-03-08T02:36:39.012Z,3.6
2018-03-08T02:37:29.183Z,3.6
2018-03-08T02:38:19.144Z,3.6
2018-03-08T02:39:09.487Z,3.6
2018-03-08T02:39:59.903Z,3.6
2018-03-08T02:40:49.403Z,3.6
2018-03-08T02:41:39.668Z,3.6
2018-03-08T02:42:29.236Z,3.7
2018-03-08T02:43:19.503Z,3.6
2018-03-08T02:44:09.845Z,3.6
2018-03-08T02:45:00.186Z,3.6
2018-03-08T02:45:49.965Z,3.6
2018-03-08T02:46:40.018Z,3.6
2018-03-08T02:47:30.083Z,3.7
2018-03-08T02:48:20.415Z,3.6
2018-03-08T02:49:10.231Z,3.6
2018-03-08T02:50:00.600Z,3.6
2018-03-08T02:50:50.619Z,3.7
2018-03-08T02:51:40.374Z,3.6
2018-03-08T02:52:30.472Z,3.7
2018-03-08T02:53:20.756Z,3.6
2018-03-08T02:54:10.577Z,3.6
2018-03-08T02:55:00.693Z,3.6
2018-03-08T02:55:50.741Z,3.6
2018-03-08T02:56:40.424Z,3.6
2018-03-08T02:57:30.770Z,3.6
2018-03-08T02:58:20.929Z,3.6
2018-03-08T02:59:10.946Z,3.7
2018-03-08T03:00:00.937Z,3.6
2018-03-08T03:00:51.292Z,3.6
2018-03-08T03:01:41.064Z,3.6
2018-03-08T03:02:31.133Z,3.6
2018-03-08T03:03:21.172Z,3.6
2018-03-08T03:04:11.525Z,3.7
2018-03-08T03:05:01.594Z,3.7
2018-03-08T03:05:51.151Z,3.7
2018-03-08T03:06:41.475Z,3.7
2018-03-08T03:07:31.185Z,3.6
2018-03-08T03:08:21.534Z,3.7
2018-03-08T03:09:11.639Z,3.6
2018-03-08T03:10:01.743Z,3.7
2018-03-08T03:10:51.432Z,3.7
2018-03-08T03:11:42.035Z,3.6
2018-03-08T03:12:31.839Z,3.6
2018-03-08T03:13:22.172Z,3.6
2018-03-08T03:14:11.941Z,3.7
2018-03-08T03:15:02.007Z,3.6
2018-03-08T03:15:52.357Z,3.7
2018-03-08T03:16:42.142Z,3.7
2018-03-08T03:17:31.885Z,3.7
2018-03-08T03:18:22.503Z,3.6
2018-03-08T03:19:12.566Z,3.6
2018-03-08T03:20:02.660Z,3.6
2018-03-08T03:20:52.398Z,3.6
2018-03-08T03:21:42.186Z,3.6
2018-03-08T03:22:32.791Z,3.6
2018-03-08T03:23:22.851Z,3.6
2018-03-08T03:24:12.908Z,3.6
2018-03-08T03:25:02.681Z,3.6
2018-03-08T03:25:52.843Z,3.6
2018-03-08T03:26:43.099Z,3.6
2018-03-08T03:27:32.863Z,3.6
2018-03-08T03:28:23.220Z,3.6
2018-03-08T03:29:12.991Z,3.6
2018-03-08T03:30:03.357Z,3.6
2018-03-08T03:30:53.105Z,3.6
2018-03-08T03:31:42.967Z,3.6
2018-03-08T03:32:33.528Z,3.6
2018-03-08T03:33:23.566Z,3.6
2018-03-08T03:34:13.338Z,3.6
2018-03-08T03:35:03.408Z,3.6
2018-03-08T03:35:53.742Z,3.6
2018-03-08T03:36:43.401Z,3.6
2018-03-08T03:37:33.870Z,3.6
2018-03-08T03:38:23.348Z,3.6
2018-03-08T03:39:13.972Z,3.6
2018-03-08T03:40:03.265Z,3.6
2018-03-08T03:40:53.812Z,3.6
2018-03-08T03:41:43.578Z,3.6
2018-03-08T03:42:34.203Z,3.6
2018-03-08T03:43:24.276Z,3.6
2018-03-08T03:44:13.840Z,3.6
2018-03-08T03:45:04.088Z,3.6
2018-03-08T03:45:54.452Z,3.6
2018-03-08T03:46:44.487Z,3.6
2018-03-08T03:47:34.551Z,3.6
2018-03-08T03:48:24.317Z,3.6
2018-03-08T03:49:14.691Z,3.6
2018-03-08T03:50:04.745Z,3.6
2018-03-08T03:50:54.779Z,3.6
2018-03-08T03:51:44.857Z,3.6
2018-03-08T03:52:34.900Z,3.6
2018-03-08T03:53:24.957Z,3.6
2018-03-08T03:54:14.720Z,3.6
2018-03-08T03:55:05.073Z,3.6
2018-03-08T03:55:54.567Z,3.5
2018-03-08T03:56:44.430Z,3.6
2018-03-08T03:57:35.268Z,3.6
2018-03-08T03:58:25.021Z,3.6
2018-03-08T03:59:15.115Z,3.5
2018-03-08T04:00:05.440Z,3.5
2018-03-08T04:00:55.014Z,3.5
2018-03-08T04:01:45.064Z,3.5
2018-03-08T04:02:35.322Z,3.5
2018-03-08T04:03:25.384Z,3.5
2018-03-08T04:04:15.340Z,3.5
2018-03-08T04:05:05.224Z,3.5
2018-03-08T04:05:55.267Z,3.5
2018-03-08T04:06:45.626Z,3.5
2018-03-08T04:07:35.986Z,3.5
2018-03-08T04:08:25.729Z,3.5
2018-03-08T04:09:16.090Z,3.5
2018-03-08T04:10:05.655Z,3.5
2018-03-08T04:10:55.999Z,3.5
2018-03-08T04:11:46.055Z,3.4
2018-03-08T04:12:36.299Z,3.5
2018-03-08T04:13:26.079Z,3.4
2018-03-08T04:14:15.938Z,3.4
2018-03-08T04:15:05.916Z,3.5
2018-03-08T04:15:55.971Z,3.4
2018-03-08T04:16:46.300Z,3.5
2018-03-08T04:17:36.388Z,3.4
2018-03-08T04:18:26.138Z,3.5
2018-03-08T04:19:16.500Z,3.4
2018-03-08T04:20:06.835Z,3.4
2018-03-08T04:20:56.331Z,3.4
2018-03-08T04:21:46.383Z,3.4
2018-03-08T04:22:36.611Z,3.4
2018-03-08T04:23:26.606Z,3.4
2018-03-08T04:24:16.854Z,3.4
2018-03-08T04:25:06.903Z,3.5
2018-03-08T04:25:56.958Z,3.4
2018-03-08T04:26:46.536Z,3.4
2018-03-08T04:27:37.360Z,3.4
2018-03-08T04:28:27.431Z,3.4
2018-03-08T04:29:16.908Z,3.4
2018-03-08T04:30:07.053Z,3.4
2018-03-08T04:30:57.215Z,3.4
2018-03-08T04:31:47.357Z,3.4
2018-03-08T04:32:37.429Z,3.4
2018-03-08T04:33:27.498Z,3.4
2018-03-08T04:34:17.824Z,3.4
2018-03-08T04:35:07.580Z,3.4
2018-03-08T04:35:57.671Z,3.4
2018-03-08T04:36:47.726Z,3.4
2018-03-08T04:37:38.055Z,3.4
2018-03-08T04:38:27.924Z,3.4
2018-03-08T04:39:18.178Z,3.4
2018-03-08T04:40:08.222Z,3.4
2018-03-08T04:40:57.820Z,3.4
2018-03-08T04:41:47.970Z,3.4
2018-03-08T04:42:38.413Z,3.4
2018-03-08T04:43:27.893Z,3.4
2018-03-08T04:44:18.260Z,3.4
2018-03-08T04:45:08.288Z,3.4
2018-03-08T04:45:58.378Z,3.4
2018-03-08T04:46:48.230Z,3.4
2018-03-08T04:47:38.747Z,3.4
2018-03-08T04:48:28.535Z,3.4
2018-03-08T04:49:18.392Z,3.4
2018-03-08T04:50:08.670Z,3.4
2018-03-08T04:50:59.019Z,3.4
2018-03-08T04:51:48.195Z,3.4
2018-03-08T04:52:38.823Z,3.4
2018-03-08T04:53:28.872Z,3.4
2018-03-08T04:54:18.753Z,3.4
2018-03-08T04:55:08.714Z,3.4
2018-03-08T04:55:58.764Z,3.4
2018-03-08T04:56:49.401Z,3.4
2018-03-08T04:57:39.459Z,3.4
2018-03-08T04:58:29.249Z,3.4
2018-03-08T04:59:18.788Z,3.4
2018-03-08T05:00:09.613Z,3.4
2018-03-08T05:00:59.706Z,3.4
2018-03-08T05:01:49.178Z,3.4
2018-03-08T05:02:39.230Z,3.4
2018-03-08T05:03:29.679Z,3.4
2018-03-08T05:04:19.346Z,3.4
2018-03-08T05:05:09.986Z,3.4
2018-03-08T05:06:00.057Z,3.4
2018-03-08T05:06:50.083Z,3.4
2018-03-08T05:07:40.141Z,3.4
2018-03-08T05:08:29.626Z,3.4
2018-03-08T05:09:19.998Z,3.4
2018-03-08T05:10:10.148Z,3.4
2018-03-08T05:10:59.825Z,3.4
2018-03-08T05:11:50.173Z,3.4
2018-03-08T05:12:40.228Z,3.4
2018-03-08T05:13:30.543Z,3.4
2018-03-08T05:14:20.640Z,3.5
2018-03-08T05:15:10.690Z,3.4
2018-03-08T05:16:00.730Z,3.4
2018-03-08T05:16:50.400Z,3.4
2018-03-08T05:17:40.565Z,3.4
2018-03-08T05:18:30.350Z,3.4
2018-03-08T05:19:20.670Z,3.4
2018-03-08T05:20:11.037Z,3.4
2018-03-08T05:21:00.798Z,3.4
2018-03-08T05:21:51.149Z,3.4
2018-03-08T05:22:40.422Z,3.4
2018-03-08T05:23:31.064Z,3.4
2018-03-08T05:24:21.094Z,3.4
2018-03-08T05:25:11.098Z,3.5
2018-03-08T05:26:01.461Z,3.4
2018-03-08T05:26:51.217Z,3.5
2018-03-08T05:27:40.969Z,3.5
2018-03-08T05:28:31.325Z,3.5
2018-03-08T05:29:21.111Z,3.5
2018-03-08T05:30:11.154Z,3.5
2018-03-08T05:31:01.808Z,3.5
2018-03-08T05:31:51.848Z,3.5
2018-03-08T05:32:41.321Z,3.5
2018-03-08T05:33:31.959Z,3.5
2018-03-08T05:34:21.723Z,3.5
2018-03-08T05:35:12.076Z,3.5
2018-03-08T05:36:02.123Z,3.5
2018-03-08T05:36:52.199Z,3.5
2018-03-08T05:37:42.238Z,3.6
2018-03-08T05:38:32.015Z,3.5
2018-03-08T05:39:22.086Z,3.6
2018-03-08T05:40:12.418Z,3.6
2018-03-08T05:41:02.501Z,3.6
2018-03-08T05:41:52.254Z,3.6
2018-03-08T05:42:42.640Z,3.6
2018-03-08T05:43:32.655Z,3.6
2018-03-08T05:44:22.140Z,3.6
2018-03-08T05:45:12.785Z,3.6
2018-03-08T05:46:02.829Z,3.6
2018-03-08T05:46:52.612Z,3.6
2018-03-08T05:47:42.957Z,3.6
2018-03-08T05:48:32.517Z,3.6
2018-03-08T05:49:22.793Z,3.6
2018-03-08T05:50:12.832Z,3.6
2018-03-08T05:51:02.917Z,3.6
2018-03-08T05:51:52.656Z,3.6
2018-03-08T05:52:42.821Z,3.6
2018-03-08T05:53:33.337Z,3.7
2018-03-08T05:54:22.983Z,3.7
2018-03-08T05:55:12.884Z,3.8
2018-03-08T05:56:03.040Z,3.8
2018-03-08T05:56:53.299Z,3.7
2018-03-08T05:57:43.337Z,3.8
2018-03-08T05:58:33.094Z,3.8
2018-03-08T05:59:23.465Z,3.8
2018-03-08T06:00:13.828Z,3.8
2018-03-08T06:01:03.604Z,3.8
2018-03-08T06:01:53.161Z,3.8
2018-03-08T06:02:43.400Z,3.8
2018-03-08T06:03:33.761Z,3.8
2018-03-08T06:04:24.126Z,3.8
2018-03-08T06:05:13.964Z,3.9
2018-03-08T06:06:03.944Z,3.9
2018-03-08T06:06:53.785Z,3.9
2018-03-08T06:07:44.058Z,3.9
2018-03-08T06:08:34.093Z,3.9
2018-03-08T06:09:24.452Z,3.9
2018-03-08T06:10:14.234Z,3.9
2018-03-08T06:11:04.584Z,4
2018-03-08T06:11:54.043Z,4
2018-03-08T06:12:44.409Z,4
2018-03-08T06:13:34.563Z,4
2018-03-08T06:14:24.501Z,4.1
2018-03-08T06:15:14.858Z,4.1
2018-03-08T06:16:04.632Z,4.1
2018-03-08T06:16:54.689Z,4.1
2018-03-08T06:17:45.052Z,4.1
2018-03-08T06:18:34.793Z,4.2
2018-03-08T06:19:24.587Z,4.3
2018-03-08T06:20:14.931Z,4.3
2018-03-08T06:21:04.798Z,4.3
2018-03-08T06:21:54.761Z,4.4
2018-03-08T06:22:44.820Z,4.4
2018-03-08T06:23:35.455Z,4.4
2018-03-08T06:24:25.556Z,4.5
2018-03-08T06:25:15.553Z,4.6
2018-03-08T06:26:05.649Z,4.6
2018-03-08T06:26:55.666Z,4.7
2018-03-08T06:27:45.715Z,4.8
2018-03-08T06:28:35.800Z,4.8
2018-03-08T06:29:25.829Z,4.9
2018-03-08T06:30:15.901Z,4.9
2018-03-08T06:31:05.390Z,5
2018-03-08T06:31:56.004Z,5.1
2018-03-08T06:32:46.081Z,5.1
2018-03-08T06:33:36.149Z,5.2
2018-03-08T06:34:26.223Z,5.3
2018-03-08T06:35:15.961Z,5.3
2018-03-08T06:36:06.307Z,5.4
2018-03-08T06:36:56.371Z,5.4
2018-03-08T06:37:46.419Z,5.5
2018-03-08T06:38:36.469Z,5.6
2018-03-08T18:44:55.954Z,7.6
2018-03-08T18:45:46.114Z,7.5
2018-03-08T18:46:35.869Z,7.5
2018-03-08T18:47:26.114Z,7.5
2018-03-08T18:48:16.297Z,7.5
2018-03-08T18:49:06.031Z,7.4
2018-03-08T18:49:56.372Z,7.4
2018-03-08T18:50:46.247Z,7.4
2018-03-08T18:51:36.205Z,7.4
2018-03-08T18:52:26.825Z,7.4
2018-03-08T18:53:16.873Z,7.4
2018-03-08T18:54:06.668Z,7.3
2018-03-08T18:54:56.730Z,7.3
2018-03-08T18:55:47.048Z,7.3
2018-03-08T18:56:36.832Z,7.3
2018-03-08T18:57:26.889Z,7.3
2018-03-08T18:58:17.233Z,7.3
2018-03-08T18:59:06.726Z,7.3
2018-03-08T18:59:56.494Z,7.3
2018-03-08T19:00:47.154Z,7.3
2018-03-08T19:01:37.483Z,7.2
2018-03-08T19:02:27.050Z,7.2
2018-03-08T19:03:17.106Z,7.2
2018-03-08T19:04:07.074Z,7.2
2018-03-08T19:04:57.418Z,7.1
2018-03-08T19:05:47.500Z,7.1
2018-03-08T19:06:37.551Z,7.1
2018-03-08T19:07:27.913Z,7.1
2018-03-08T19:08:17.675Z,7.1
2018-03-08T19:09:07.432Z,7.1
2018-03-08T19:09:57.773Z,7.1
2018-03-08T19:10:47.426Z,7.1
2018-03-08T19:11:38.150Z,7
2018-03-08T19:12:27.758Z,7
2018-03-08T19:13:18.288Z,7
2018-03-08T19:14:07.862Z,7
2018-03-08T19:14:58.446Z,6.9
2018-03-08T19:15:47.765Z,6.9
2018-03-08T19:16:38.020Z,6.9
2018-03-08T19:17:28.288Z,6.9
2018-03-08T19:18:18.253Z,6.9
2018-03-08T19:19:08.228Z,6.9
2018-03-08T19:19:58.763Z,6.9
2018-03-08T19:20:48.792Z,6.9
2018-03-08T19:21:38.595Z,6.9
2018-03-08T19:22:28.450Z,6.9
2018-03-08T19:23:18.431Z,6.8
2018-03-08T19:24:08.757Z,6.9
2018-03-08T19:24:58.825Z,6.8
2018-03-08T19:25:48.590Z,6.8
2018-03-08T19:26:38.453Z,6.8
2018-03-08T19:27:29.009Z,6.8
2018-03-08T19:28:19.039Z,6.8
2018-03-08T19:29:09.388Z,6.8
2018-03-08T19:29:59.441Z,6.8
2018-03-08T19:30:49.215Z,6.8
2018-03-08T19:31:39.267Z,6.8
2018-03-08T19:32:29.624Z,6.8
2018-03-08T19:33:19.104Z,6.8
2018-03-08T19:34:09.461Z,6.7
2018-03-08T19:34:59.214Z,6.7
2018-03-08T19:35:49.289Z,6.7
2018-03-08T19:36:40.004Z,6.6
2018-03-08T19:37:30.000Z,6.7
2018-03-08T19:38:20.042Z,6.6
2018-03-08T19:39:10.067Z,6.6
2018-03-08T19:40:00.121Z,6.6
2018-03-08T19:40:49.914Z,6.6
2018-03-08T19:41:39.964Z,6.6
2018-03-08T19:42:30.291Z,6.6
2018-03-08T19:43:19.808Z,6.6
2018-03-08T19:44:09.756Z,6.6
2018-03-08T19:44:59.902Z,6.6
2018-03-08T19:45:49.984Z,6.5
2018-03-08T19:46:40.328Z,6.5
2018-03-08T19:47:30.690Z,6.5
2018-03-08T19:48:20.246Z,6.5
2018-03-08T19:49:10.815Z,6.4
2018-03-08T19:50:00.600Z,6.4
2018-03-08T19:50:50.682Z,6.4
2018-03-08T19:51:40.681Z,6.4
2018-03-08T19:52:30.537Z,6.4
2018-03-08T19:53:21.056Z,6.4
2018-03-08T19:54:10.363Z,6.4
2018-03-08T19:55:00.638Z,6.4
2018-03-08T19:55:50.964Z,6.3
2018-03-08T19:56:40.734Z,6.3
2018-03-08T19:57:30.592Z,6.3
2018-03-08T19:58:21.456Z,6.3
2018-03-08T19:59:10.909Z,6.3
2018-03-08T20:00:01.570Z,6.3
2018-03-08T20:00:51.029Z,6.3
2018-03-08T20:01:41.506Z,6.3
2018-03-08T20:02:31.425Z,6.3
2018-03-08T20:03:21.203Z,6.2
2018-03-08T20:04:11.883Z,6.2
2018-03-08T20:05:01.887Z,6.2
2018-03-08T20:05:51.938Z,6.2
2018-03-08T20:06:41.709Z,6.1
2018-03-08T20:07:31.800Z,6.1
2018-03-08T20:08:22.118Z,6.1
2018-03-08T20:09:11.903Z,6.1
2018-03-08T20:10:02.230Z,6.1
2018-03-08T20:10:52.008Z,6.1
2018-03-08T20:11:42.352Z,6.1
2018-03-08T20:12:32.110Z,6.1
2018-03-08T20:13:22.169Z,6.1
2018-03-08T20:14:11.940Z,6.1
2018-03-08T20:15:02.589Z,6
2018-03-08T20:15:52.617Z,6
2018-03-08T20:16:42.703Z,6
2018-03-08T20:17:32.732Z,6
2018-03-08T20:18:22.804Z,6
2018-03-08T20:19:12.576Z,5.9
2018-03-08T20:20:02.983Z,5.9
2018-03-08T20:20:52.986Z,5.9
2018-03-08T20:21:42.177Z,5.9
2018-03-08T20:22:32.624Z,5.9
2018-03-08T20:23:23.157Z,5.9
2018-03-08T20:24:12.720Z,5.9
2018-03-08T20:25:02.496Z,5.9
2018-03-08T20:25:52.744Z,5.9
2018-03-08T20:26:43.109Z,5.9
2018-03-08T20:27:33.454Z,5.9
2018-03-08T20:28:23.229Z,5.9
2018-03-08T20:29:13.083Z,5.8
2018-03-08T20:30:03.356Z,5.8
2018-03-08T20:30:53.205Z,5.8
2018-03-08T20:31:43.448Z,5.8
2018-03-08T20:32:33.803Z,5.8
2018-03-08T20:33:23.377Z,5.8
2018-03-08T20:34:13.430Z,5.8
2018-03-08T20:35:03.690Z,5.8
2018-03-08T20:35:53.729Z,5.8
2018-03-08T20:36:44.085Z,5.8
2018-03-08T20:37:33.558Z,5.7
2018-03-08T20:38:24.220Z,5.7
2018-03-08T20:39:14.005Z,5.7
2018-03-08T20:40:03.758Z,5.7
2018-03-08T20:40:53.812Z,5.7
2018-03-08T20:41:44.155Z,5.7
2018-03-08T20:42:34.225Z,5.6
2018-03-08T20:43:23.974Z,5.6
2018-03-08T20:44:14.402Z,5.6
2018-03-08T20:45:04.665Z,5.6
2018-03-08T20:45:54.506Z,5.6
2018-03-08T20:46:43.921Z,5.6
2018-03-08T20:47:34.369Z,5.6
2018-03-08T20:48:24.605Z,5.6
2018-03-08T20:49:14.565Z,5.6
2018-03-08T20:50:04.442Z,5.6
2018-03-08T20:50:55.067Z,5.6
2018-03-08T20:51:44.548Z,5.6
2018-03-08T20:52:35.179Z,5.6
2018-03-08T20:53:24.670Z,5.6
2018-03-08T20:54:15.025Z,5.6
2018-03-08T20:55:05.359Z,5.6
2018-03-08T20:55:55.136Z,5.6
2018-03-08T20:56:45.270Z,5.6
2018-03-08T20:57:35.050Z,5.5
2018-03-08T20:58:25.334Z,5.5
2018-03-08T20:59:15.371Z,5.5
2018-03-08T21:00:05.431Z,5.5
2018-03-08T21:00:55.461Z,5.5
2018-03-08T21:01:45.057Z,5.4
2018-03-08T21:02:35.602Z,5.4
2018-03-08T21:03:25.772Z,5.4
2018-03-08T21:04:15.999Z,5.4
2018-03-08T21:05:05.497Z,5.4
2018-03-08T21:05:56.137Z,5.4
2018-03-08T21:06:46.238Z,5.4
2018-03-08T21:07:35.944Z,5.4
2018-03-08T21:08:26.283Z,5.4
2018-03-08T21:09:16.064Z,5.4
2018-03-08T21:10:05.627Z,5.4
2018-03-08T21:10:56.188Z,5.4
2018-03-08T21:11:45.752Z,5.4
2018-03-08T21:12:36.287Z,5.4
2018-03-08T21:13:26.047Z,5.4
2018-03-08T21:14:16.404Z,5.4
2018-03-08T21:15:06.195Z,5.4
2018-03-08T21:15:55.946Z,5.4
2018-03-08T21:16:46.570Z,5.4
2018-03-08T21:17:36.633Z,5.3
2018-03-08T21:18:27.018Z,5.3
2018-03-08T21:19:17.017Z,5.4
2018-03-08T21:20:07.084Z,5.3
2018-03-08T21:20:57.136Z,5.3
2018-03-08T21:21:46.918Z,5.3
2018-03-08T21:22:37.248Z,5.3
2018-03-08T21:23:27.324Z,5.3
2018-03-08T21:24:17.373Z,5.3
2018-03-08T21:25:07.491Z,5.3
2018-03-08T21:25:57.483Z,5.3
2018-03-08T21:26:47.556Z,5.3
2018-03-08T21:27:37.610Z,5.3
2018-03-08T21:28:27.675Z,5.3
2018-03-08T21:29:17.732Z,5.3
2018-03-08T21:30:07.500Z,5.3
2018-03-08T21:30:57.832Z,5.3
2018-03-08T21:31:47.892Z,5.3
2018-03-08T21:32:37.943Z,5.3
2018-03-08T21:33:27.731Z,5.3
2018-03-08T21:34:18.083Z,5.3
2018-03-08T21:35:07.846Z,5.3
2018-03-08T21:35:57.936Z,5.3
2018-03-08T21:36:48.240Z,5.3
2018-03-08T21:37:38.293Z,5.3
2018-03-08T21:38:28.137Z,5.3
2018-03-08T21:39:18.422Z,5.3
2018-03-08T21:40:08.483Z,5.3
2018-03-08T21:40:58.540Z,5.3
2018-03-08T21:41:48.737Z,5.3
2018-03-08T21:42:38.644Z,5.3
2018-03-08T21:43:28.432Z,5.3
2018-03-08T21:44:18.774Z,5.3
2018-03-08T21:45:08.263Z,5.3
2018-03-08T21:45:58.897Z,5.3
2018-03-08T21:46:48.678Z,5.3
2018-03-08T21:47:38.727Z,5.3
2018-03-08T21:48:29.118Z,5.3
2018-03-08T21:49:19.125Z,5.3
2018-03-08T21:50:09.235Z,5.3
2018-03-08T21:50:59.294Z,5.3
2018-03-08T21:51:49.317Z,5.3
2018-03-08T21:52:39.347Z,5.3
2018-03-08T21:53:29.402Z,5.3
2018-03-08T21:54:18.899Z,5.3
2018-03-08T21:55:09.524Z,5.3
2018-03-08T21:55:59.629Z,5.3
2018-03-08T21:56:49.639Z,5.3
2018-03-08T21:57:39.406Z,5.3
2018-03-08T21:58:29.491Z,5.2
2018-03-08T21:59:19.541Z,5.3
2018-03-08T22:00:09.896Z,5.3
2018-03-08T22:00:59.926Z,5.3
2018-03-08T22:01:49.985Z,5.3
2018-03-08T22:02:39.767Z,5.2
2018-03-08T22:03:29.819Z,5.3
2018-03-08T22:04:20.159Z,5.3
2018-03-08T22:05:09.956Z,5.2
2018-03-08T22:06:00.009Z,5.3
2018-03-08T22:06:50.066Z,5.3
2018-03-08T22:07:40.433Z,5.2
2018-03-08T22:08:30.460Z,5.3
2018-03-08T22:09:20.498Z,5.3
2018-03-08T22:10:09.995Z,5.3
2018-03-08T22:11:00.375Z,5.3
2018-03-08T22:11:50.715Z,5.2
2018-03-08T22:12:40.731Z,5.3
2018-03-08T22:13:30.782Z,5.2
2018-03-08T22:14:20.840Z,5.3
2018-03-08T22:15:10.900Z,5.3
2018-03-08T22:16:00.957Z,5.3
2018-03-08T22:16:51.028Z,5.3
2018-03-08T22:17:40.805Z,5.2
2018-03-08T22:18:31.127Z,5.3
2018-03-08T22:19:21.189Z,5.3
2018-03-08T22:20:10.981Z,5.2
2018-03-08T22:21:01.315Z,5.3
2018-03-08T22:21:51.419Z,5.2
2018-03-08T22:22:41.453Z,5.2
2018-03-08T22:23:31.207Z,5.2
2018-03-08T22:24:21.247Z,5.2
2018-03-08T22:25:11.612Z,5.2
2018-03-08T22:26:01.662Z,5.3
2018-03-08T22:26:51.719Z,5.3
2018-03-08T22:27:41.769Z,5.2
2018-03-08T22:28:31.577Z,5.2
2018-03-08T22:29:21.325Z,5.2
2018-03-08T22:30:11.180Z,5.2
2018-03-08T22:31:01.742Z,5.2
2018-03-08T22:31:51.869Z,5.2
2018-03-08T22:32:41.829Z,5.2
2018-03-08T22:33:31.923Z,5.2
2018-03-08T22:34:21.670Z,5.2
2018-03-08T22:35:12.325Z,5.2
2018-03-08T22:36:02.097Z,5.2
2018-03-08T22:36:52.155Z,5.2
2018-03-08T22:37:42.492Z,5.2
2018-03-08T22:38:32.064Z,5.2
2018-03-08T22:39:22.312Z,5.2
2018-03-08T22:40:12.674Z,5.2
2018-03-08T22:41:02.322Z,5.2
2018-03-08T22:41:52.776Z,5.2
2018-03-08T22:42:42.859Z,5.2
2018-03-08T22:43:32.915Z,5.2
2018-03-08T22:44:22.179Z,5.2
2018-03-08T22:45:12.431Z,5.2
2018-03-08T22:46:02.767Z,5.2
2018-03-08T22:46:52.810Z,5.2
2018-03-08T22:47:42.901Z,5.2
2018-03-08T22:48:32.663Z,5.2
2018-03-08T22:49:23.009Z,5.2
2018-03-08T22:50:13.074Z,5.2
2018-03-08T22:51:03.197Z,5.2
2018-03-08T22:51:53.184Z,5.1
2018-03-08T22:52:43.504Z,5.2
2018-03-08T22:53:33.295Z,5.2
2018-03-08T22:54:23.635Z,5.2
2018-03-08T22:55:13.686Z,5.1
2018-03-08T22:56:03.489Z,5.2
2018-03-08T22:56:53.806Z,5.2
2018-03-08T22:57:43.577Z,5.1
2018-03-08T22:58:33.638Z,5.2
2018-03-08T22:59:23.978Z,5.1
2018-03-08T23:00:13.478Z,5.1
2018-03-08T23:01:03.801Z,5.1
2018-03-08T23:01:54.146Z,5.1
2018-03-08T23:02:44.215Z,5.1
2018-03-08T23:03:34.288Z,5.1
2018-03-08T23:04:24.363Z,5.1
2018-03-08T23:05:14.445Z,5.1
2018-03-08T23:06:04.445Z,5.1
2018-03-08T23:06:54.511Z,5.1
2018-03-08T23:07:44.549Z,5.1
2018-03-08T23:08:34.352Z,5.1
2018-03-08T23:09:24.393Z,5.1
2018-03-08T23:10:14.729Z,5.1
2018-03-08T23:11:04.805Z,5.1
2018-03-08T23:11:54.873Z,5.1
2018-03-08T23:12:44.622Z,5.1
2018-03-08T23:13:34.976Z,5.1
2018-03-08T23:14:25.028Z,5.1
2018-03-08T23:15:14.527Z,5.1
2018-03-08T23:16:05.145Z,5.1
2018-03-08T23:16:55.210Z,5.1
2018-03-08T23:17:45.262Z,5.1
2018-03-08T23:18:35.045Z,5.1
2018-03-08T23:19:25.394Z,5.1
2018-03-08T23:20:15.419Z,5.1
2018-03-08T23:21:05.484Z,5.1
2018-03-08T23:21:55.544Z,5.1
2018-03-08T23:22:45.602Z,5.1
2018-03-08T23:23:35.666Z,5.1
2018-03-08T23:24:25.727Z,5
2018-03-08T23:25:15.771Z,5
2018-03-08T23:26:05.344Z,5
2018-03-08T23:26:55.336Z,5
2018-03-08T23:27:45.386Z,5
2018-03-08T23:28:35.473Z,5
2018-03-08T23:29:25.796Z,5
2018-03-08T23:30:15.741Z,5
2018-03-08T23:31:06.193Z,5
2018-03-08T23:31:56.042Z,4.9
2018-03-08T23:32:46.043Z,5
2018-03-08T23:33:35.886Z,4.9
2018-03-08T23:34:26.176Z,4.9
2018-03-08T23:35:16.005Z,4.9
2018-03-08T23:36:06.543Z,4.9
2018-03-08T23:36:56.128Z,4.9